Time;durP1;ratioP1;P1;durP2;ratioP2;P2;SDS_P1;SDS_P2;PMS_P1;PMS_P2;Temp;Humidity;BMP_temperature;BMP_pressure;BME280_temperature;BME280_humidity;BME280_pressure;Samples;Min_cycle;Max_cycle;Signal;HPM_P1;HPM_P2
2023/01/12 00:02:04;;;;;;;9.40;2.30;;;;;;;;;;5070073;28;20279;-50
2023/01/12 00:04:30;;;;;;;7.40;2.37;;;;;;;;;;5069409;28;20208;-51
2023/01/12 00:06:56;;;;;;;10.40;2.70;;;;;;;;;;5070146;28;20852;-51
2023/01/12 00:09:23;;;;;;;11.90;2.43;;;;;;;;;;5070016;28;20295;-52
2023/01/12 00:11:49;;;;;;;8.27;2.40;;;;;;;;;;5070097;28;20210;-52
2023/01/12 00:14:15;;;;;;;6.70;2.67;;;;;;;;;;5069704;28;20665;-51
2023/01/12 00:16:41;;;;;;;8.37;2.43;;;;;;;;;;5069677;28;20231;-52
2023/01/12 00:19:11;;;;;;;7.23;2.13;;;;;;;;;;5069729;28;20206;-52
2023/01/12 00:21:42;;;;;;;7.60;2.43;;;;;;;;;;5069765;28;20203;-51
2023/01/12 00:24:08;;;;;;;5.37;2.23;;;;;;;;;;5069951;28;20253;-51
2023/01/12 00:26:35;;;;;;;7.20;2.43;;;;;;;;;;5069748;28;20195;-52
2023/01/12 00:29:01;;;;;;;10.40;2.97;;;;;;;;;;5069400;28;20203;-52
2023/01/12 00:31:27;;;;;;;7.53;3.03;;;;;;;;;;5061952;28;20191;-51
2023/01/12 00:33:53;;;;;;;8.03;2.30;;;;;;;;;;5067671;28;20654;-54
2023/01/12 00:36:19;;;;;;;9.83;3.13;;;;;;;;;;5069410;28;20319;-53
2023/01/12 00:38:47;;;;;;;5.97;2.43;;;;;;;;;;5077382;28;20216;-53
2023/01/12 00:45:20;;;;;;;8.23;2.87;;;;;;;;;;5089902;28;20210;-54
2023/01/12 00:46:45;;;;;;;11.40;3.03;;;;;;;;;;5089806;28;20248;-55
2023/01/12 00:49:11;;;;;;;9.30;2.80;;;;;;;;;;5089713;28;20198;-55
2023/01/12 00:51:37;;;;;;;8.47;2.60;;;;;;;;;;5091959;28;20660;-53
2023/01/12 00:54:06;;;;;;;6.73;2.63;;;;;;;;;;5093817;28;20289;-56
2023/01/12 00:56:33;;;;;;;10.63;3.43;;;;;;;;;;5093828;28;20313;-55
2023/01/12 00:59:00;;;;;;;6.97;2.30;;;;;;;;;;5093968;28;20191;-55
2023/01/12 01:01:26;;;;;;;9.50;3.40;;;;;;;;;;5093584;28;20245;-55
2023/01/12 01:03:53;;;;;;;6.53;2.77;;;;;;;;;;5093730;28;20195;-56
2023/01/12 01:06:20;;;;;;;8.17;3.37;;;;;;;;;;5093661;28;20238;-55
2023/01/12 01:08:46;;;;;;;9.07;3.00;;;;;;;;;;5093488;28;20199;-56
2023/01/12 01:11:13;;;;;;;8.40;3.60;;;;;;;;;;5093691;28;20350;-51
2023/01/12 01:13:39;;;;;;;7.03;2.50;;;;;;;;;;5093289;28;20199;-53
2023/01/12 01:16:07;;;;;;;8.90;2.97;;;;;;;;;;5093381;28;20255;-53
2023/01/12 01:18:33;;;;;;;8.07;3.27;;;;;;;;;;5093278;28;20207;-53
2023/01/12 01:20:59;;;;;;;7.60;3.10;;;;;;;;;;5093378;28;20245;-53
2023/01/12 01:23:26;;;;;;;5.23;2.87;;;;;;;;;;5093266;28;20222;-53
2023/01/12 01:25:52;;;;;;;13.47;2.90;;;;;;;;;;5093489;28;20194;-55
2023/01/12 01:28:19;;;;;;;9.10;2.87;;;;;;;;;;5092853;28;20615;-53
2023/01/12 01:30:45;;;;;;;9.47;3.27;;;;;;;;;;5093100;28;20296;-53
2023/01/12 01:33:12;;;;;;;10.93;2.77;;;;;;;;;;5093160;28;20195;-53
2023/01/12 01:35:38;;;;;;;8.80;3.30;;;;;;;;;;5092791;28;20254;-53
2023/01/12 01:38:05;;;;;;;8.50;3.20;;;;;;;;;;5093234;28;20191;-53
2023/01/12 01:40:31;;;;;;;10.60;2.87;;;;;;;;;;5092856;28;20235;-55
2023/01/12 01:42:57;;;;;;;10.87;2.80;;;;;;;;;;5092946;28;20207;-53
2023/01/12 01:45:23;;;;;;;8.63;2.90;;;;;;;;;;5092824;28;20203;-53
2023/01/12 01:47:51;;;;;;;7.17;2.30;;;;;;;;;;5093005;28;20210;-55
2023/01/12 01:50:22;;;;;;;6.80;2.43;;;;;;;;;;5093194;28;20198;-53
2023/01/12 01:52:50;;;;;;;5.93;2.63;;;;;;;;;;5092927;28;20302;-53
2023/01/12 01:55:18;;;;;;;8.83;3.27;;;;;;;;;;5092654;28;20202;-53
2023/01/12 01:57:47;;;;;;;6.73;2.40;;;;;;;;;;5092457;28;20191;-53
2023/01/12 02:00:13;;;;;;;5.63;2.33;;;;;;;;;;5092658;28;20652;-53
2023/01/12 02:02:40;;;;;;;6.83;2.30;;;;;;;;;;5091549;28;20199;-53
2023/01/12 02:05:06;;;;;;;6.87;2.30;;;;;;;;;;5092424;28;20195;-53
2023/01/12 02:07:34;;;;;;;4.60;2.20;;;;;;;;;;5092356;28;20281;-53
2023/01/12 02:10:00;;;;;;;4.63;2.27;;;;;;;;;;5092518;28;20210;-53
2023/01/12 02:18:00;;;;;;;4.40;1.90;;;;;;;;;;5092210;28;20319;-53
2023/01/12 02:20:36;;;;;;;6.20;1.90;;;;;;;;;;5092039;28;20335;-53
2023/01/12 02:23:23;;;;;;;4.17;1.70;;;;;;;;;;5092334;28;20194;-53
2023/01/12 02:26:09;;;;;;;4.90;2.50;;;;;;;;;;5086701;28;20194;-53
2023/01/12 02:28:51;;;;;;;3.80;1.90;;;;;;;;;;5065723;28;20202;-53
2023/01/12 02:31:37;;;;;;;4.77;2.10;;;;;;;;;;5091988;28;20238;-53
2023/01/12 02:34:09;;;;;;;3.07;2.00;;;;;;;;;;5086552;28;20218;-53
2023/01/12 02:36:38;;;;;;;3.77;2.07;;;;;;;;;;5091750;28;20242;-54
2023/01/12 02:39:08;;;;;;;6.13;2.10;;;;;;;;;;5091939;28;20190;-53
2023/01/12 02:44:26;;;;;;;5.03;2.30;;;;;;;;;;5091924;28;20199;-53
2023/01/12 02:46:53;;;;;;;3.17;2.20;;;;;;;;;;5091696;28;20179;-53
2023/01/12 02:49:22;;;;;;;6.13;2.27;;;;;;;;;;5091742;28;20311;-53
2023/01/12 02:51:51;;;;;;;6.57;2.00;;;;;;;;;;5091603;28;20318;-53
2023/01/12 02:54:19;;;;;;;6.90;2.80;;;;;;;;;;5091711;28;20207;-54
2023/01/12 02:56:47;;;;;;;6.10;2.37;;;;;;;;;;5091425;28;20237;-54
2023/01/12 02:59:15;;;;;;;7.00;2.60;;;;;;;;;;5091372;28;20195;-54
2023/01/12 03:01:42;;;;;;;4.17;2.20;;;;;;;;;;5091472;28;20199;-52
2023/01/12 03:04:09;;;;;;;6.27;2.80;;;;;;;;;;5091394;28;20274;-53
2023/01/12 03:06:41;;;;;;;4.53;2.70;;;;;;;;;;5091132;28;20260;-54
2023/01/12 03:09:07;;;;;;;8.53;3.00;;;;;;;;;;5091197;28;20213;-53
2023/01/12 03:11:35;;;;;;;7.67;2.87;;;;;;;;;;5091173;28;20309;-53
2023/01/12 03:14:02;;;;;;;8.50;2.87;;;;;;;;;;5090395;28;20439;-53
2023/01/12 03:16:30;;;;;;;9.80;3.20;;;;;;;;;;5090831;28;20230;-53
2023/01/12 03:18:58;;;;;;;6.77;2.83;;;;;;;;;;5091157;28;20652;-53
2023/01/12 03:21:26;;;;;;;6.73;2.90;;;;;;;;;;5090855;28;20286;-53
2023/01/12 03:23:55;;;;;;;9.07;3.40;;;;;;;;;;5090747;28;20199;-53
2023/01/12 03:26:26;;;;;;;6.60;2.73;;;;;;;;;;5090921;28;20214;-53
2023/01/12 03:28:54;;;;;;;7.80;3.00;;;;;;;;;;5090914;28;20199;-53
2023/01/12 03:31:21;;;;;;;6.97;2.63;;;;;;;;;;5090959;28;20242;-53
2023/01/12 03:33:47;;;;;;;7.37;3.00;;;;;;;;;;5090579;28;20199;-53
2023/01/12 03:36:15;;;;;;;8.67;3.13;;;;;;;;;;5090683;28;20246;-53
2023/01/12 03:38:45;;;;;;;7.23;2.83;;;;;;;;;;5090659;28;20207;-53
2023/01/12 03:41:17;;;;;;;8.33;3.10;;;;;;;;;;5090908;28;20206;-54
2023/01/12 03:43:46;;;;;;;5.83;2.70;;;;;;;;;;5090556;28;20645;-53
2023/01/12 03:46:14;;;;;;;5.17;2.80;;;;;;;;;;5090736;28;20195;-54
2023/01/12 03:48:42;;;;;;;8.97;3.03;;;;;;;;;;5090559;28;20710;-52
2023/01/12 03:51:10;;;;;;;5.50;2.87;;;;;;;;;;5090591;28;20264;-53
2023/01/12 03:53:38;;;;;;;6.57;3.10;;;;;;;;;;5090430;28;20632;-53
2023/01/12 03:56:06;;;;;;;8.07;3.17;;;;;;;;;;5090480;28;20223;-53
2023/01/12 03:58:34;;;;;;;6.40;3.00;;;;;;;;;;5090171;28;20207;-52
2023/01/12 04:01:00;;;;;;;6.33;2.93;;;;;;;;;;5090231;28;20206;-52
2023/01/12 04:03:25;;;;;;;7.93;3.33;;;;;;;;;;5090470;28;20187;-52
2023/01/12 04:05:51;;;;;;;7.17;3.23;;;;;;;;;;5090221;28;20664;-54
2023/01/12 04:08:17;;;;;;;7.50;3.53;;;;;;;;;;5090376;28;20198;-52
2023/01/12 04:10:44;;;;;;;6.87;3.40;;;;;;;;;;5090166;28;20195;-52
2023/01/12 04:13:10;;;;;;;7.00;4.20;;;;;;;;;;5090064;28;20194;-52
2023/01/12 04:15:41;;;;;;;8.93;3.80;;;;;;;;;;5090133;28;20195;-51
2023/01/12 04:18:07;;;;;;;7.53;3.90;;;;;;;;;;5090153;28;20207;-52
2023/01/12 04:20:33;;;;;;;5.77;3.93;;;;;;;;;;5089946;28;20194;-52
2023/01/12 04:22:59;;;;;;;7.97;4.13;;;;;;;;;;5090140;28;20198;-52
2023/01/12 04:25:25;;;;;;;8.07;3.97;;;;;;;;;;5089583;28;20197;-52
2023/01/12 04:27:52;;;;;;;6.33;4.23;;;;;;;;;;5090280;28;20191;-55
2023/01/12 04:30:21;;;;;;;9.93;4.70;;;;;;;;;;5090138;28;20289;-56
2023/01/12 04:32:49;;;;;;;7.93;4.40;;;;;;;;;;5089915;28;20229;-52
2023/01/12 04:35:15;;;;;;;8.73;4.87;;;;;;;;;;5089937;28;20230;-52
2023/01/12 04:37:41;;;;;;;8.63;5.10;;;;;;;;;;5089935;28;20215;-53
2023/01/12 04:40:09;;;;;;;6.97;5.17;;;;;;;;;;5090075;28;20202;-53
2023/01/12 04:45:19;;;;;;;10.53;5.13;;;;;;;;;;5089901;28;20201;-53
2023/01/12 04:47:45;;;;;;;8.17;5.07;;;;;;;;;;5089915;28;20191;-53
2023/01/12 04:50:13;;;;;;;11.03;5.63;;;;;;;;;;5089958;28;20190;-53
2023/01/12 04:52:39;;;;;;;8.27;5.37;;;;;;;;;;5089734;28;20201;-53
2023/01/12 04:55:05;;;;;;;7.53;5.23;;;;;;;;;;5089630;28;20657;-53
2023/01/12 04:57:31;;;;;;;10.43;6.33;;;;;;;;;;5089783;28;20227;-53
2023/01/12 04:59:57;;;;;;;11.63;6.43;;;;;;;;;;5089622;28;20267;-53
2023/01/12 05:02:23;;;;;;;8.83;5.90;;;;;;;;;;5089862;28;20194;-53
2023/01/12 05:04:49;;;;;;;9.67;5.77;;;;;;;;;;5089694;28;20213;-53
2023/01/12 05:07:16;;;;;;;11.23;5.60;;;;;;;;;;5089796;28;20599;-53
2023/01/12 05:12:27;;;;;;;12.30;5.63;;;;;;;;;;5089555;28;20222;-52
2023/01/12 05:14:53;;;;;;;7.70;5.20;;;;;;;;;;5089570;28;20195;-53
2023/01/12 05:17:19;;;;;;;9.27;4.63;;;;;;;;;;5089561;28;20226;-53
2023/01/12 05:19:47;;;;;;;8.93;4.43;;;;;;;;;;5089379;28;20224;-54
2023/01/12 05:22:13;;;;;;;5.10;3.43;;;;;;;;;;5089589;28;20215;-53
2023/01/12 05:24:40;;;;;;;5.83;3.60;;;;;;;;;;5089604;28;20806;-54
2023/01/12 05:27:06;;;;;;;9.00;4.00;;;;;;;;;;5089530;28;20273;-53
2023/01/12 05:29:32;;;;;;;7.20;3.40;;;;;;;;;;5089503;28;20227;-54
2023/01/12 05:31:58;;;;;;;7.80;3.30;;;;;;;;;;5089345;28;20635;-54
2023/01/12 05:34:24;;;;;;;5.27;3.20;;;;;;;;;;5089571;28;20191;-54
2023/01/12 05:36:50;;;;;;;4.20;3.00;;;;;;;;;;5089236;28;20270;-54
2023/01/12 05:39:16;;;;;;;6.33;2.90;;;;;;;;;;5092511;28;20674;-54
2023/01/12 05:44:28;;;;;;;4.13;2.50;;;;;;;;;;5092913;28;20201;-54
2023/01/12 05:46:54;;;;;;;5.47;2.50;;;;;;;;;;5092873;28;20195;-54
2023/01/12 05:49:20;;;;;;;5.47;2.67;;;;;;;;;;5092901;28;20198;-54
2023/01/12 05:51:46;;;;;;;6.03;2.67;;;;;;;;;;5092720;28;20193;-54
2023/01/12 05:54:12;;;;;;;5.60;2.63;;;;;;;;;;5093049;28;20199;-54
2023/01/12 05:56:38;;;;;;;6.43;2.97;;;;;;;;;;5092521;28;20266;-54
2023/01/12 05:59:06;;;;;;;6.40;3.07;;;;;;;;;;5092782;28;20202;-54
2023/01/12 06:01:32;;;;;;;8.30;2.80;;;;;;;;;;5092545;28;20757;-54
2023/01/12 06:03:58;;;;;;;5.90;2.77;;;;;;;;;;5092535;28;20191;-54
2023/01/12 06:06:26;;;;;;;9.70;3.23;;;;;;;;;;5092655;28;20187;-54
2023/01/12 06:08:52;;;;;;;8.50;4.10;;;;;;;;;;5092280;28;20200;-54
2023/01/12 06:14:05;;;;;;;5.90;2.40;;;;;;;;;;5092524;28;20244;-54
2023/01/12 06:16:31;;;;;;;7.30;2.70;;;;;;;;;;5092172;28;20284;-54
2023/01/12 06:18:57;;;;;;;7.13;2.90;;;;;;;;;;5092055;28;20224;-54
2023/01/12 06:21:24;;;;;;;6.73;2.67;;;;;;;;;;5091836;28;20289;-54
2023/01/12 06:23:50;;;;;;;6.03;2.80;;;;;;;;;;5092073;28;20190;-54
2023/01/12 06:26:16;;;;;;;7.67;2.80;;;;;;;;;;5092162;28;20712;-54
2023/01/12 06:28:42;;;;;;;7.37;3.07;;;;;;;;;;5091987;28;20195;-54
2023/01/12 06:31:10;;;;;;;5.33;2.30;;;;;;;;;;5092035;28;20191;-54
2023/01/12 06:33:36;;;;;;;5.57;2.57;;;;;;;;;;5091954;28;20267;-54
2023/01/12 06:36:02;;;;;;;8.10;2.97;;;;;;;;;;5091659;28;20329;-54
2023/01/12 06:38:29;;;;;;;4.13;2.33;;;;;;;;;;5091783;28;20245;-54
2023/01/12 06:40:56;;;;;;;7.77;2.40;;;;;;;;;;5091811;28;20551;-54
2023/01/12 06:43:22;;;;;;;4.63;2.50;;;;;;;;;;5091571;28;20754;-55
2023/01/12 06:45:48;;;;;;;5.10;2.07;;;;;;;;;;5091874;28;20191;-54
2023/01/12 06:48:15;;;;;;;6.03;2.13;;;;;;;;;;5091565;28;20203;-55
2023/01/12 06:50:41;;;;;;;3.73;2.33;;;;;;;;;;5091453;28;20277;-54
2023/01/12 06:53:08;;;;;;;6.63;2.43;;;;;;;;;;5091827;28;20721;-55
2023/01/12 06:55:34;;;;;;;3.73;1.90;;;;;;;;;;5091671;28;20285;-54
2023/01/12 06:58:02;;;;;;;5.07;2.33;;;;;;;;;;5091551;28;20322;-54
2023/01/12 07:00:28;;;;;;;5.63;1.90;;;;;;;;;;5091612;28;20203;-54
2023/01/12 07:02:54;;;;;;;3.17;1.90;;;;;;;;;;5091380;28;20587;-54
2023/01/12 07:05:21;;;;;;;3.10;1.50;;;;;;;;;;5091511;28;20195;-54
2023/01/12 07:07:47;;;;;;;4.97;1.90;;;;;;;;;;5091093;28;20203;-54
2023/01/12 07:10:13;;;;;;;3.50;1.87;;;;;;;;;;5091593;28;20195;-54
2023/01/12 07:12:39;;;;;;;3.23;1.40;;;;;;;;;;5091724;28;20187;-54
2023/01/12 07:15:06;;;;;;;3.43;1.50;;;;;;;;;;5091287;28;20210;-53
2023/01/12 07:17:32;;;;;;;3.47;1.53;;;;;;;;;;5091056;28;20219;-54
2023/01/12 07:19:58;;;;;;;3.63;1.83;;;;;;;;;;5090735;28;20249;-53
2023/01/12 07:22:25;;;;;;;2.43;1.50;;;;;;;;;;5091218;28;20226;-51
2023/01/12 07:24:52;;;;;;;1.53;1.30;;;;;;;;;;5091160;28;20211;-54
2023/01/12 07:27:17;;;;;;;3.03;1.30;;;;;;;;;;5090918;28;20187;-53
2023/01/12 07:29:45;;;;;;;1.63;1.20;;;;;;;;;;5090915;28;20272;-54
2023/01/12 07:32:11;;;;;;;2.30;1.40;;;;;;;;;;5090893;28;20252;-53
2023/01/12 07:34:37;;;;;;;2.03;1.30;;;;;;;;;;5090661;28;20244;-53
2023/01/12 07:37:03;;;;;;;1.60;1.00;;;;;;;;;;5088581;28;20234;-53
2023/01/12 07:39:30;;;;;;;1.70;1.10;;;;;;;;;;5090435;28;20301;-53
2023/01/12 07:44:41;;;;;;;2.37;1.30;;;;;;;;;;5090954;28;20194;-53
2023/01/12 07:47:07;;;;;;;1.77;1.30;;;;;;;;;;5090522;28;20203;-53
2023/01/12 07:49:33;;;;;;;1.67;1.40;;;;;;;;;;5090473;28;20637;-53
2023/01/12 07:51:59;;;;;;;1.57;1.27;;;;;;;;;;5090375;28;20202;-56
2023/01/12 07:54:25;;;;;;;1.57;1.10;;;;;;;;;;5090601;28;20269;-53
2023/01/12 07:56:52;;;;;;;2.90;1.30;;;;;;;;;;5090223;28;20256;-53
2023/01/12 07:59:18;;;;;;;1.30;1.10;;;;;;;;;;5090348;28;20252;-53
2023/01/12 08:01:44;;;;;;;0.90;0.90;;;;;;;;;;5089791;28;20206;-53
2023/01/12 08:04:10;;;;;;;1.50;1.23;;;;;;;;;;5089997;28;20321;-53
2023/01/12 08:06:36;;;;;;;2.70;1.20;;;;;;;;;;5090002;28;20660;-53
2023/01/12 08:09:02;;;;;;;2.17;1.17;;;;;;;;;;5090231;28;20228;-52
2023/01/12 08:11:28;;;;;;;1.20;1.10;;;;;;;;;;5089979;28;20290;-52
2023/01/12 08:13:56;;;;;;;0.80;0.80;;;;;;;;;;5090116;28;20639;-53
2023/01/12 08:16:24;;;;;;;1.87;1.10;;;;;;;;;;5089915;28;20239;-52
2023/01/12 08:18:53;;;;;;;1.50;1.10;;;;;;;;;;5089605;28;20414;-53
2023/01/12 08:21:20;;;;;;;1.30;1.20;;;;;;;;;;5090051;28;20206;-53
2023/01/12 08:23:48;;;;;;;2.50;1.33;;;;;;;;;;5089815;28;20209;-53
2023/01/12 08:26:16;;;;;;;2.50;1.20;;;;;;;;;;5089736;28;20191;-52
2023/01/12 08:28:45;;;;;;;1.20;1.10;;;;;;;;;;5089790;28;20222;-53
2023/01/12 08:31:14;;;;;;;1.20;1.10;;;;;;;;;;5090071;28;20550;-52
2023/01/12 08:33:40;;;;;;;1.53;1.10;;;;;;;;;;5089684;28;20205;-52
2023/01/12 08:36:07;;;;;;;1.83;1.30;;;;;;;;;;5089637;28;20314;-52
2023/01/12 08:38:33;;;;;;;1.37;1.00;;;;;;;;;;5089805;28;20690;-52
2023/01/12 08:44:03;;;;;;;4.07;1.20;;;;;;;;;;5089627;28;20186;-53
2023/01/12 08:46:31;;;;;;;1.50;1.13;;;;;;;;;;5089896;28;20190;-52
2023/01/12 08:48:57;;;;;;;1.83;1.20;;;;;;;;;;5089725;28;20286;-52
2023/01/12 08:51:23;;;;;;;1.13;1.00;;;;;;;;;;5089571;28;20195;-53
2023/01/12 08:53:49;;;;;;;2.37;1.03;;;;;;;;;;5089687;28;20194;-53
2023/01/12 08:56:15;;;;;;;1.87;1.50;;;;;;;;;;5089569;28;20223;-53
2023/01/12 08:58:42;;;;;;;2.40;1.30;;;;;;;;;;5089728;28;20195;-53
2023/01/12 09:01:08;;;;;;;0.97;0.93;;;;;;;;;;5089892;28;20211;-54
2023/01/12 09:03:35;;;;;;;2.10;1.10;;;;;;;;;;5087820;28;20505;-53
2023/01/12 09:06:07;;;;;;;1.00;1.00;;;;;;;;;;5089817;28;20203;-53
2023/01/12 09:08:33;;;;;;;2.27;1.10;;;;;;;;;;5089559;28;20564;-54
2023/01/12 09:11:01;;;;;;;1.70;1.30;;;;;;;;;;5089344;28;20192;-53
2023/01/12 09:13:28;;;;;;;1.50;1.40;;;;;;;;;;5091508;28;20222;-53
2023/01/12 09:15:53;;;;;;;1.83;1.20;;;;;;;;;;5093184;28;20206;-53
2023/01/12 09:18:20;;;;;;;1.30;1.13;;;;;;;;;;5093507;28;20199;-53
2023/01/12 09:20:47;;;;;;;0.90;0.90;;;;;;;;;;5093546;28;20206;-53
2023/01/12 09:23:13;;;;;;;3.23;1.13;;;;;;;;;;5093371;28;20565;-53
2023/01/12 09:25:39;;;;;;;2.47;1.37;;;;;;;;;;5093256;28;20693;-52
2023/01/12 09:28:05;;;;;;;1.53;1.00;;;;;;;;;;5093326;28;20195;-53
2023/01/12 09:30:31;;;;;;;1.20;1.10;;;;;;;;;;5093107;28;20563;-52
2023/01/12 09:32:57;;;;;;;1.70;1.13;;;;;;;;;;5093118;28;20213;-53
2023/01/12 09:35:23;;;;;;;1.93;1.20;;;;;;;;;;5092957;28;20227;-53
2023/01/12 09:37:50;;;;;;;1.27;1.20;;;;;;;;;;5093208;28;20219;-53
2023/01/12 09:40:17;;;;;;;1.47;1.30;;;;;;;;;;5093144;28;20202;-52
2023/01/12 09:48:18;;;;;;;1.20;1.00;;;;;;;;;;5092985;28;20194;-52
2023/01/12 09:50:46;;;;;;;1.20;1.00;;;;;;;;;;5092639;28;20681;-53
2023/01/12 09:53:17;;;;;;;1.67;1.40;;;;;;;;;;5083375;28;20194;-52
2023/01/12 09:55:51;;;;;;;1.30;1.20;;;;;;;;;;5089384;28;20403;-53
2023/01/12 09:58:25;;;;;;;1.73;1.40;;;;;;;;;;5092627;28;20324;-52
2023/01/12 10:00:53;;;;;;;1.57;1.20;;;;;;;;;;5092463;28;20273;-53
2023/01/12 10:03:25;;;;;;;1.30;1.20;;;;;;;;;;5090570;28;20289;-53
2023/01/12 10:05:51;;;;;;;4.10;1.67;;;;;;;;;;5090717;28;20199;-53
2023/01/12 10:08:26;;;;;;;1.90;1.43;;;;;;;;;;5092461;28;20278;-53
2023/01/12 10:10:59;;;;;;;2.63;1.40;;;;;;;;;;5092496;28;20206;-53
2023/01/12 10:13:28;;;;;;;1.40;1.30;;;;;;;;;;5092416;28;20317;-53
2023/01/12 10:15:55;;;;;;;2.53;1.93;;;;;;;;;;5092034;28;20206;-53
2023/01/12 10:18:25;;;;;;;3.80;1.80;;;;;;;;;;5092092;28;20276;-54
2023/01/12 10:20:52;;;;;;;2.80;2.00;;;;;;;;;;5092205;28;20190;-54
2023/01/12 10:23:23;;;;;;;3.03;1.80;;;;;;;;;;5091700;28;20604;-53
2023/01/12 10:25:50;;;;;;;1.77;1.67;;;;;;;;;;5091869;28;20214;-53
2023/01/12 10:28:17;;;;;;;1.80;1.70;;;;;;;;;;5091906;28;20197;-53
2023/01/12 10:30:44;;;;;;;2.00;1.80;;;;;;;;;;5091934;28;20571;-53
2023/01/12 10:33:11;;;;;;;2.30;2.10;;;;;;;;;;5091967;28;20191;-53
2023/01/12 10:35:47;;;;;;;3.30;2.17;;;;;;;;;;5091647;28;20231;-53
2023/01/12 10:38:14;;;;;;;2.50;2.20;;;;;;;;;;5091884;28;20712;-53
2023/01/12 10:40:41;;;;;;;2.60;2.20;;;;;;;;;;5091860;28;20250;-54
2023/01/12 10:43:30;;;;;;;2.77;2.10;;;;;;;;;;5091675;28;20210;-53
2023/01/12 10:46:10;;;;;;;3.20;2.07;;;;;;;;;;5091566;28;20260;-53
2023/01/12 10:48:37;;;;;;;2.33;2.13;;;;;;;;;;5091678;28;20198;-54
2023/01/12 10:51:04;;;;;;;2.17;1.90;;;;;;;;;;5091362;28;20336;-53
2023/01/12 10:53:35;;;;;;;2.07;1.97;;;;;;;;;;5091457;28;20195;-53
2023/01/12 10:56:12;;;;;;;3.57;2.10;;;;;;;;;;5091990;28;20198;-54
2023/01/12 10:58:38;;;;;;;3.50;2.30;;;;;;;;;;5091420;28;20486;-53
2023/01/12 11:01:05;;;;;;;2.67;2.20;;;;;;;;;;5091263;28;20206;-53
2023/01/12 11:03:33;;;;;;;3.07;2.00;;;;;;;;;;5091063;28;20252;-53
2023/01/12 11:06:16;;;;;;;2.07;1.70;;;;;;;;;;5091056;28;20233;-53
2023/01/12 11:08:42;;;;;;;2.00;1.90;;;;;;;;;;5091250;28;20195;-53
2023/01/12 11:11:22;;;;;;;2.17;1.90;;;;;;;;;;5090910;28;20299;-53
2023/01/12 11:13:51;;;;;;;2.00;1.90;;;;;;;;;;5091163;28;20203;-53
2023/01/12 11:16:19;;;;;;;2.50;1.67;;;;;;;;;;5091098;28;20213;-53
2023/01/12 11:18:46;;;;;;;3.13;1.83;;;;;;;;;;5090954;28;20195;-53
2023/01/12 11:21:12;;;;;;;1.70;1.60;;;;;;;;;;5091081;28;20195;-53
2023/01/12 11:23:40;;;;;;;2.07;1.97;;;;;;;;;;5090869;28;20230;-53
2023/01/12 11:26:09;;;;;;;5.33;2.30;;;;;;;;;;5090789;28;20587;-53
2023/01/12 11:28:39;;;;;;;1.80;1.67;;;;;;;;;;5091055;28;20199;-53
2023/01/12 11:31:06;;;;;;;2.07;1.90;;;;;;;;;;5090940;28;20230;-53
2023/01/12 11:33:36;;;;;;;1.90;1.80;;;;;;;;;;5090964;28;20206;-53
2023/01/12 11:36:05;;;;;;;2.10;1.90;;;;;;;;;;5089524;28;20231;-53
2023/01/12 11:38:35;;;;;;;4.70;1.93;;;;;;;;;;5090743;28;20668;-53
2023/01/12 11:41:02;;;;;;;3.43;2.13;;;;;;;;;;5090717;28;20215;-54
2023/01/12 11:43:54;;;;;;;3.53;2.17;;;;;;;;;;5090513;28;20206;-53
2023/01/12 11:46:28;;;;;;;4.03;2.03;;;;;;;;;;5090596;28;20198;-53
2023/01/12 11:48:59;;;;;;;2.77;1.90;;;;;;;;;;5090451;28;20253;-53
2023/01/12 11:51:25;;;;;;;2.00;1.90;;;;;;;;;;5090507;28;20202;-53
2023/01/12 11:53:51;;;;;;;2.00;1.80;;;;;;;;;;5090345;28;20194;-54
2023/01/12 11:56:23;;;;;;;2.20;1.93;;;;;;;;;;5090266;28;20661;-54
2023/01/12 11:58:52;;;;;;;2.00;1.60;;;;;;;;;;5090191;28;20206;-54
2023/01/12 12:01:21;;;;;;;2.53;1.63;;;;;;;;;;5090289;28;20199;-53
2023/01/12 12:03:58;;;;;;;2.07;1.70;;;;;;;;;;5090153;28;20191;-54
2023/01/12 12:06:36;;;;;;;2.60;1.73;;;;;;;;;;5090244;28;20199;-53
2023/01/12 12:09:09;;;;;;;1.60;1.50;;;;;;;;;;5090210;28;20195;-53
2023/01/12 12:11:39;;;;;;;1.60;1.50;;;;;;;;;;5090162;28;20199;-53
2023/01/12 12:14:12;;;;;;;1.87;1.30;;;;;;;;;;5090408;28;20630;-53
2023/01/12 12:16:45;;;;;;;1.40;1.30;;;;;;;;;;5089854;28;20238;-53
2023/01/12 12:19:29;;;;;;;1.50;1.40;;;;;;;;;;5090093;28;20199;-53
2023/01/12 12:22:00;;;;;;;3.37;1.40;;;;;;;;;;5089797;28;20213;-53
2023/01/12 12:24:39;;;;;;;1.47;1.37;;;;;;;;;;5090168;28;20213;-53
2023/01/12 12:27:07;;;;;;;1.50;1.40;;;;;;;;;;5089774;28;20293;-53
2023/01/12 12:29:39;;;;;;;2.27;1.50;;;;;;;;;;5089750;28;20194;-52
2023/01/12 12:32:11;;;;;;;1.50;1.40;;;;;;;;;;5089798;28;20360;-53
2023/01/12 12:34:44;;;;;;;2.20;1.20;;;;;;;;;;5089921;28;20203;-53
2023/01/12 12:37:16;;;;;;;1.33;1.30;;;;;;;;;;5089791;28;20229;-52
2023/01/12 12:39:47;;;;;;;1.40;1.30;;;;;;;;;;5090067;28;20202;-53
2023/01/12 12:45:24;;;;;;;1.30;1.20;;;;;;;;;;5090367;28;20209;-53
2023/01/12 12:47:55;;;;;;;1.50;1.40;;;;;;;;;;5092403;28;20527;-53
2023/01/12 12:50:23;;;;;;;1.43;1.33;;;;;;;;;;5094276;28;20277;-54
2023/01/12 12:53:01;;;;;;;1.47;1.37;;;;;;;;;;5093865;28;20213;-53
2023/01/12 12:55:27;;;;;;;1.47;1.33;;;;;;;;;;5093895;28;20206;-53
2023/01/12 12:58:00;;;;;;;1.53;1.43;;;;;;;;;;5093650;28;20222;-53
2023/01/12 13:00:31;;;;;;;1.40;1.30;;;;;;;;;;5093791;28;20539;-53
2023/01/12 13:02:57;;;;;;;1.40;1.30;;;;;;;;;;5093849;28;20582;-53
2023/01/12 13:05:39;;;;;;;1.40;1.30;;;;;;;;;;5093645;28;20256;-56
2023/01/12 13:08:14;;;;;;;1.37;1.20;;;;;;;;;;5093620;28;20202;-55
2023/01/12 13:10:47;;;;;;;1.33;1.20;;;;;;;;;;5093435;28;20777;-54
2023/01/12 13:13:27;;;;;;;1.57;1.40;;;;;;;;;;5093307;28;20278;-54
2023/01/12 13:16:12;;;;;;;1.40;1.10;;;;;;;;;;5093236;28;20218;-54
2023/01/12 13:18:42;;;;;;;0.97;0.97;;;;;;;;;;5093368;28;20218;-54
2023/01/12 13:21:23;;;;;;;1.40;1.30;;;;;;;;;;5093187;28;20207;-54
2023/01/12 13:23:51;;;;;;;1.40;1.30;;;;;;;;;;5091558;28;20194;-54
2023/01/12 13:26:34;;;;;;;1.93;1.20;;;;;;;;;;5092942;28;20202;-54
2023/01/12 13:29:18;;;;;;;1.30;1.20;;;;;;;;;;5082739;28;20933;-53
2023/01/12 13:31:44;;;;;;;2.53;1.57;;;;;;;;;;5092623;28;20210;-53
2023/01/12 13:34:28;;;;;;;1.70;1.40;;;;;;;;;;5092974;28;20195;-53
2023/01/12 13:37:02;;;;;;;1.50;1.30;;;;;;;;;;5092637;28;20231;-53
2023/01/12 13:39:30;;;;;;;1.77;1.63;;;;;;;;;;5093470;28;20222;-53
2023/01/12 13:44:43;;;;;;;1.60;1.50;;;;;;;;;;5092668;28;20201;-52
2023/01/12 13:47:10;;;;;;;1.40;1.30;;;;;;;;;;5092694;28;20191;-53
2023/01/12 13:49:43;;;;;;;1.90;1.40;;;;;;;;;;5092771;28;20309;-52
2023/01/12 13:52:19;;;;;;;1.70;1.50;;;;;;;;;;5092864;28;20201;-53
2023/01/12 13:54:49;;;;;;;1.77;1.67;;;;;;;;;;5090771;28;20202;-53
2023/01/12 13:57:17;;;;;;;1.40;1.30;;;;;;;;;;5092615;28;20740;-53
2023/01/12 13:59:55;;;;;;;1.27;1.17;;;;;;;;;;5089529;28;20198;-54
2023/01/12 14:02:21;;;;;;;2.47;1.50;;;;;;;;;;5092427;28;20228;-53
2023/01/12 14:04:59;;;;;;;3.57;1.50;;;;;;;;;;5092076;28;20187;-53
2023/01/12 14:07:40;;;;;;;2.37;1.80;;;;;;;;;;5092229;28;20227;-53
2023/01/12 14:10:14;;;;;;;1.83;1.60;;;;;;;;;;5092305;28;20190;-53
2023/01/12 14:12:46;;;;;;;1.80;1.70;;;;;;;;;;5092257;28;20680;-53
2023/01/12 14:18:09;;;;;;;1.87;1.63;;;;;;;;;;5092010;28;20253;-53
2023/01/12 14:20:40;;;;;;;2.37;1.80;;;;;;;;;;5092185;28;20206;-53
2023/01/12 14:23:13;;;;;;;1.80;1.70;;;;;;;;;;5092018;28;20656;-53
2023/01/12 14:25:40;;;;;;;4.93;2.10;;;;;;;;;;5092056;28;20537;-53
2023/01/12 14:28:14;;;;;;;2.07;1.97;;;;;;;;;;5091877;28;20210;-53
2023/01/12 14:30:45;;;;;;;2.90;1.80;;;;;;;;;;5091893;28;20202;-53
2023/01/12 14:33:14;;;;;;;2.00;1.90;;;;;;;;;;5091854;28;20195;-53
2023/01/12 14:35:44;;;;;;;1.70;1.60;;;;;;;;;;5091424;28;20288;-54
2023/01/12 14:38:11;;;;;;;1.80;1.70;;;;;;;;;;5091699;28;20257;-53
2023/01/12 14:40:37;;;;;;;2.07;1.97;;;;;;;;;;5091846;28;20286;-53
2023/01/12 14:48:42;;;;;;;2.10;2.00;;;;;;;;;;5091554;28;20202;-53
2023/01/12 14:51:18;;;;;;;2.27;2.10;;;;;;;;;;5091409;28;20203;-52
2023/01/12 14:53:45;;;;;;;1.90;1.80;;;;;;;;;;5091545;28;20194;-53
2023/01/12 14:56:15;;;;;;;1.97;1.87;;;;;;;;;;5091420;28;20203;-53
2023/01/12 14:58:43;;;;;;;2.00;1.90;;;;;;;;;;5091183;28;20234;-53
2023/01/12 15:01:10;;;;;;;2.10;1.90;;;;;;;;;;5091222;28;20203;-53
2023/01/12 15:03:36;;;;;;;1.83;1.73;;;;;;;;;;5091352;28;20191;-54
2023/01/12 15:06:02;;;;;;;1.80;1.70;;;;;;;;;;5091016;28;20672;-53
2023/01/12 15:08:29;;;;;;;1.80;1.70;;;;;;;;;;5091099;28;20203;-53
2023/01/12 15:10:57;;;;;;;1.80;1.70;;;;;;;;;;5091035;28;20286;-53
2023/01/12 15:13:24;;;;;;;2.00;1.90;;;;;;;;;;5091018;28;20266;-56
2023/01/12 15:26:58;;;;;;;5.23;2.00;;;;;;;;;;5090544;28;20274;-53
2023/01/12 15:29:24;;;;;;;2.57;2.37;;;;;;;;;;5090715;28;20293;-53
2023/01/12 15:31:51;;;;;;;2.60;2.40;;;;;;;;;;5090766;28;20206;-53
2023/01/12 15:34:17;;;;;;;2.80;2.60;;;;;;;;;;5090615;28;20195;-53
2023/01/12 15:36:43;;;;;;;2.70;2.50;;;;;;;;;;5090476;28;20243;-53
2023/01/12 15:39:10;;;;;;;2.43;2.23;;;;;;;;;;5090474;28;20234;-53
2023/01/12 15:44:38;;;;;;;2.30;2.10;;;;;;;;;;5067841;28;20198;-53
2023/01/12 15:47:06;;;;;;;2.20;2.00;;;;;;;;;;5085638;28;20507;-53
2023/01/12 15:49:32;;;;;;;3.20;2.10;;;;;;;;;;5090639;28;20612;-53
2023/01/12 15:51:59;;;;;;;2.40;2.20;;;;;;;;;;5090386;28;20195;-53
2023/01/12 15:54:25;;;;;;;2.40;2.20;;;;;;;;;;5090736;28;20198;-53